createdAt,value
2023-03-05T00:01:23.076Z,98100.56
2023-03-05T00:03:52.536Z,98091.94
2023-03-05T00:06:23.915Z,98095.00
2023-03-05T00:08:52.128Z,98104.22
2023-03-05T00:11:20.164Z,98101.25
2023-03-05T00:13:47.270Z,98107.00
2023-03-05T00:16:16.322Z,98099.78
2023-03-05T00:18:45.067Z,98104.22
2023-03-05T00:21:23.938Z,98105.25
2023-03-05T00:23:52.088Z,98104.53
2023-03-05T00:26:24.548Z,98093.50
2023-03-05T00:28:52.776Z,98065.78
2023-03-05T00:31:25.857Z,98094.69
2023-03-05T00:33:55.043Z,98074.34
2023-03-05T00:36:22.147Z,98095.94
2023-03-05T00:38:49.272Z,98092.75
2023-03-05T00:41:16.398Z,98087.72
2023-03-05T00:43:43.491Z,98085.38
2023-03-05T00:46:10.475Z,98079.81
2023-03-05T00:48:37.430Z,98076.31
2023-03-05T00:51:05.041Z,98072.28
2023-03-05T00:53:32.100Z,98069.22
2023-03-05T00:55:59.484Z,98076.22
2023-03-05T00:58:26.620Z,98073.03
2023-03-05T01:00:53.526Z,98072.63
2023-03-05T01:03:20.481Z,98065.72
2023-03-05T01:05:47.343Z,98072.56
2023-03-05T01:08:14.425Z,98062.84
2023-03-05T01:10:41.403Z,98068.09
2023-03-05T01:13:08.567Z,98072.41
2023-03-05T01:15:35.614Z,98069.38
2023-03-05T01:18:02.518Z,98061.41
2023-03-05T01:20:29.750Z,98066.44
2023-03-05T01:22:59.153Z,98070.38
2023-03-05T01:25:27.013Z,98065.63
2023-03-05T01:27:54.202Z,98059.19
2023-03-05T01:30:21.302Z,98054.69
2023-03-05T01:32:48.408Z,98063.72
2023-03-05T01:35:23.169Z,98066.91
2023-03-05T01:37:50.432Z,98060.63
2023-03-05T01:40:21.256Z,98052.47
2023-03-05T01:42:55.587Z,98060.00
2023-03-05T01:45:22.530Z,98066.56
2023-03-05T01:47:49.415Z,98053.59
2023-03-05T01:50:23.146Z,98060.19
2023-03-05T01:52:58.724Z,98060.44
2023-03-05T01:55:29.465Z,98052.75
2023-03-05T01:58:02.098Z,98056.63
2023-03-05T02:00:34.417Z,98042.91
2023-03-05T02:03:09.939Z,98041.94
2023-03-05T02:05:39.353Z,98052.41
2023-03-05T02:08:27.946Z,98038.44
2023-03-05T02:11:19.067Z,98034.53
2023-03-05T02:14:07.779Z,98039.84
2023-03-05T02:16:52.532Z,98047.97
2023-03-05T02:19:37.779Z,98035.81
2023-03-05T02:22:32.586Z,98037.78
2023-03-05T02:24:59.640Z,98040.97
2023-03-05T02:27:35.282Z,98024.75
2023-03-05T02:30:02.812Z,98023.09
2023-03-05T02:32:29.810Z,98024.81
2023-03-05T02:34:56.797Z,98024.09
2023-03-05T02:37:23.732Z,98021.16
2023-03-05T02:39:50.643Z,98022.53
2023-03-05T02:42:17.754Z,98018.91
2023-03-05T02:44:44.678Z,98016.25
2023-03-05T02:47:11.637Z,98021.31
2023-03-05T02:49:38.783Z,97995.09
2023-03-05T02:52:06.005Z,98008.03
2023-03-05T02:54:32.930Z,98008.16
2023-03-05T02:56:59.813Z,98015.16
2023-03-05T02:59:26.766Z,98008.88
2023-03-05T03:01:53.660Z,98013.22
2023-03-05T03:04:20.650Z,98013.66
2023-03-05T03:06:47.533Z,98029.31
2023-03-05T03:09:14.471Z,98019.13
2023-03-05T03:11:41.388Z,98017.63
2023-03-05T03:14:08.353Z,98015.38
2023-03-05T03:16:35.418Z,98013.38
2023-03-05T03:19:02.369Z,98009.78
2023-03-05T03:21:29.394Z,98005.09
2023-03-05T03:23:56.343Z,98006.66
2023-03-05T03:26:23.335Z,97983.72
2023-03-05T03:28:50.942Z,97993.25
2023-03-05T03:31:17.969Z,97993.06
2023-03-05T03:33:45.481Z,97996.56
2023-03-05T03:36:12.677Z,97991.25
2023-03-05T03:38:39.702Z,98000.91
2023-03-05T03:41:08.242Z,98006.22
2023-03-05T03:43:38.478Z,97993.06
2023-03-05T03:46:07.749Z,97992.22
2023-03-05T03:48:36.228Z,97997.41
2023-03-05T03:51:08.138Z,97992.22
2023-03-05T03:53:38.026Z,97990.28
2023-03-05T03:56:05.297Z,97990.94
2023-03-05T03:58:32.909Z,97942.47
2023-03-05T04:00:59.884Z,97984.97
2023-03-05T04:03:26.829Z,97983.28
2023-03-05T04:05:53.763Z,97985.94
2023-03-05T04:08:20.678Z,97993.91
2023-03-05T04:10:47.598Z,97975.31
2023-03-05T04:13:14.528Z,97976.03
2023-03-05T04:15:41.715Z,97977.84
2023-03-05T04:18:09.689Z,97980.94
2023-03-05T04:20:36.582Z,97971.19
2023-03-05T04:23:04.398Z,97971.72
2023-03-05T04:25:31.345Z,97960.97
2023-03-05T04:27:58.220Z,97967.13
2023-03-05T04:30:25.124Z,97965.28
2023-03-05T04:32:51.996Z,97961.63
2023-03-05T04:35:19.392Z,97955.22
2023-03-05T04:37:46.297Z,97943.75
2023-03-05T04:40:13.445Z,97948.22
2023-03-05T04:42:40.558Z,97945.56
2023-03-05T04:45:08.681Z,97938.44
2023-03-05T04:47:35.807Z,97938.72
2023-03-05T04:50:04.721Z,97926.44
2023-03-05T04:52:31.854Z,97908.34
2023-03-05T04:54:59.037Z,97925.59
2023-03-05T04:57:25.976Z,97930.91
2023-03-05T04:59:52.898Z,97930.09
2023-03-05T05:02:19.814Z,97925.34
2023-03-05T05:04:46.750Z,97920.34
2023-03-05T05:07:13.721Z,97925.66
2023-03-05T05:09:41.772Z,97932.66
2023-03-05T05:12:10.643Z,97937.97
2023-03-05T05:14:38.009Z,97947.88
2023-03-05T05:17:05.444Z,97942.78
2023-03-05T05:19:35.916Z,97944.59
2023-03-05T05:22:02.980Z,97949.75
2023-03-05T05:24:30.021Z,97950.34
2023-03-05T05:26:57.075Z,97952.84
2023-03-05T05:29:24.316Z,97921.94
2023-03-05T05:31:51.222Z,97959.38
2023-03-05T05:34:18.148Z,97945.03
2023-03-05T05:36:45.070Z,97964.25
2023-03-05T05:39:11.979Z,97957.25
2023-03-05T05:41:39.143Z,97958.09
2023-03-05T05:44:06.032Z,97957.13
2023-03-05T05:46:33.085Z,97954.16
2023-03-05T05:49:00.046Z,97947.22
2023-03-05T05:51:27.001Z,97947.88
2023-03-05T05:53:54.056Z,97946.91
2023-03-05T05:56:21.354Z,97922.38
2023-03-05T05:58:49.323Z,97935.31
2023-03-05T06:01:23.978Z,97935.97
2023-03-05T06:03:51.273Z,97944.78
2023-03-05T06:06:21.928Z,97932.47
2023-03-05T06:08:49.641Z,97946.81
2023-03-05T06:11:19.226Z,97939.97
2023-03-05T06:13:47.539Z,97943.06
2023-03-05T06:16:17.883Z,97934.69
2023-03-05T06:18:44.997Z,97936.03
2023-03-05T06:21:15.221Z,97935.97
2023-03-05T06:23:43.425Z,97935.09
2023-03-05T06:26:12.662Z,97927.50
2023-03-05T06:28:39.786Z,97937.47
2023-03-05T06:31:11.956Z,97928.25
2023-03-05T06:33:41.108Z,97931.84
2023-03-05T06:36:10.795Z,97930.88
2023-03-05T06:38:38.473Z,97923.56
2023-03-05T06:41:09.574Z,97937.53
2023-03-05T06:43:38.802Z,97936.56
2023-03-05T06:46:17.488Z,97932.75
2023-03-05T06:48:44.628Z,97927.00
2023-03-05T06:51:39.032Z,97924.66
2023-03-05T06:54:09.439Z,97918.72
2023-03-05T06:56:38.327Z,97915.59
2023-03-05T06:59:06.301Z,97922.06
2023-03-05T07:01:33.798Z,97916.50
2023-03-05T07:04:03.136Z,97912.28
2023-03-05T07:06:33.771Z,97901.78
2023-03-05T07:09:03.779Z,97917.66
2023-03-05T07:11:30.747Z,97907.88
2023-03-05T07:13:57.659Z,97907.28
2023-03-05T07:16:27.168Z,97901.78
2023-03-05T07:18:56.198Z,97903.84
2023-03-05T07:21:26.169Z,97899.19
2023-03-05T07:23:58.536Z,97899.03
2023-03-05T07:26:26.803Z,97898.19
2023-03-05T07:28:54.400Z,97891.44
2023-03-05T07:31:27.388Z,97891.94
2023-03-05T07:33:54.512Z,97875.84
2023-03-05T07:36:21.828Z,97884.72
2023-03-05T07:38:48.787Z,97880.59
2023-03-05T07:41:21.327Z,97875.19
2023-03-05T07:43:50.387Z,97884.72
2023-03-05T07:46:19.890Z,97876.25
2023-03-05T07:48:46.843Z,97877.47
2023-03-05T07:51:17.084Z,97862.38
2023-03-05T07:53:45.677Z,97869.03
2023-03-05T07:56:12.642Z,97851.09
2023-03-05T07:58:39.665Z,97862.44
2023-03-05T08:01:15.652Z,97865.06
2023-03-05T08:03:44.358Z,97868.19
2023-03-05T08:06:12.504Z,97868.09
2023-03-05T08:08:39.544Z,97865.41
2023-03-05T08:11:08.998Z,97865.63
2023-03-05T08:13:36.611Z,97865.81
2023-03-05T08:16:08.624Z,97855.84
2023-03-05T08:18:35.959Z,97858.16
2023-03-05T08:21:03.373Z,97863.50
2023-03-05T08:23:30.725Z,97856.72
2023-03-05T08:25:57.905Z,97865.19
2023-03-05T08:28:24.833Z,97857.34
2023-03-05T08:30:54.579Z,97855.25
2023-03-05T08:33:21.758Z,97858.06
2023-03-05T08:35:48.642Z,97846.06
2023-03-05T08:38:15.744Z,97849.56
2023-03-05T08:40:43.455Z,97843.41
2023-03-05T08:43:10.416Z,97847.63
2023-03-05T08:45:39.439Z,97839.28
2023-03-05T08:48:06.636Z,97841.94
2023-03-05T08:50:33.540Z,97837.94
2023-03-05T08:53:00.423Z,97835.94
2023-03-05T08:55:27.361Z,97839.13
2023-03-05T08:57:54.265Z,97827.97
2023-03-05T09:00:21.458Z,97827.66
2023-03-05T09:02:48.737Z,97828.63
2023-03-05T09:05:16.320Z,97832.28
2023-03-05T09:07:43.652Z,97829.97
2023-03-05T09:10:13.530Z,97828.63
2023-03-05T09:12:41.270Z,97828.81
2023-03-05T09:15:09.765Z,97830.44
2023-03-05T09:17:38.126Z,97827.00
2023-03-05T09:20:06.835Z,97821.31
2023-03-05T09:22:33.865Z,97823.34
2023-03-05T09:25:00.818Z,97819.50
2023-03-05T09:27:27.741Z,97819.34
2023-03-05T09:29:54.725Z,97819.84
2023-03-05T09:32:21.741Z,97817.50
2023-03-05T09:34:48.704Z,97823.66
2023-03-05T09:37:15.700Z,97812.50
2023-03-05T09:39:42.661Z,97811.34
2023-03-05T09:42:28.910Z,97814.31
2023-03-05T09:45:08.816Z,97806.81
2023-03-05T09:47:54.211Z,97810.47
2023-03-05T09:50:24.145Z,97816.00
2023-03-05T09:52:57.395Z,97807.66
2023-03-05T09:55:42.581Z,97810.00
2023-03-05T09:58:31.489Z,97815.69
2023-03-05T10:01:02.838Z,97813.81
2023-03-05T10:03:50.070Z,97808.00
2023-03-05T10:06:36.928Z,97808.34
2023-03-05T10:09:22.233Z,97814.81
2023-03-05T10:11:59.502Z,97814.13
2023-03-05T10:14:44.476Z,97802.59
2023-03-05T10:17:29.820Z,97807.56
2023-03-05T10:20:05.773Z,97809.22
2023-03-05T10:23:15.900Z,97809.28
2023-03-05T10:26:20.675Z,97802.13
2023-03-05T10:28:59.805Z,97799.09
2023-03-05T10:31:36.636Z,97794.09
2023-03-05T10:35:03.128Z,97758.63
2023-03-05T10:37:45.027Z,97795.91
2023-03-05T10:40:11.856Z,97787.75
2023-03-05T10:43:02.766Z,97789.31
2023-03-05T10:45:36.005Z,97780.59
2023-03-05T10:48:25.189Z,97780.38
2023-03-05T10:51:10.545Z,97778.91
2023-03-05T10:53:52.215Z,97772.22
2023-03-05T10:56:23.244Z,97766.66
2023-03-05T10:58:52.283Z,97761.47
2023-03-05T11:01:25.939Z,97768.97
2023-03-05T11:04:01.767Z,97771.53
2023-03-05T11:06:46.039Z,97762.88
2023-03-05T11:09:20.312Z,97759.53
2023-03-05T11:12:10.739Z,97756.22
2023-03-05T11:15:02.605Z,97746.75
2023-03-05T11:17:43.598Z,97740.13
2023-03-05T11:20:31.711Z,97744.75
2023-03-05T11:23:25.021Z,97740.72
2023-03-05T11:25:51.985Z,97737.81
2023-03-05T11:28:32.247Z,97738.59
2023-03-05T11:31:03.080Z,97739.91
2023-03-05T11:33:31.520Z,97731.44
2023-03-05T11:36:12.866Z,97727.44
2023-03-05T11:38:52.376Z,97726.25
2023-03-05T11:41:34.835Z,97725.50
2023-03-05T11:44:06.158Z,97726.28
2023-03-05T11:46:41.612Z,97705.53
2023-03-05T11:49:12.885Z,97713.38
2023-03-05T11:51:43.020Z,97708.34
2023-03-05T11:54:16.847Z,97714.72
2023-03-05T11:56:46.020Z,97713.38
2023-03-05T11:59:29.327Z,97709.59
2023-03-05T12:01:57.905Z,97697.41
2023-03-05T12:04:25.448Z,97688.09
2023-03-05T12:06:58.079Z,97705.06
2023-03-05T12:09:42.326Z,97707.06
2023-03-05T12:12:38.637Z,97705.25
2023-03-05T12:15:17.756Z,97699.41
2023-03-05T12:18:13.737Z,97672.28
2023-03-05T12:21:04.460Z,97686.25
2023-03-05T12:23:49.295Z,97687.59
2023-03-05T12:26:16.751Z,97694.41
2023-03-05T12:28:44.238Z,97683.06
2023-03-05T12:31:39.589Z,97684.94
2023-03-05T12:34:40.594Z,97681.78
2023-03-05T12:37:34.922Z,97692.75
2023-03-05T12:40:20.765Z,97686.22
2023-03-05T12:42:52.325Z,97683.44
2023-03-05T12:45:19.827Z,97676.44
2023-03-05T12:47:48.321Z,97669.69
2023-03-05T12:50:27.243Z,97674.00
2023-03-05T12:53:15.871Z,97664.59
2023-03-05T12:55:48.316Z,97674.94
2023-03-05T12:58:40.027Z,97662.47
2023-03-05T13:01:34.314Z,97674.91
2023-03-05T13:04:11.035Z,97669.44
2023-03-05T13:06:39.974Z,97664.22
2023-03-05T13:09:25.005Z,97666.16
2023-03-05T13:11:54.408Z,97662.19
2023-03-05T13:14:36.575Z,97656.72
2023-03-05T13:17:23.790Z,97672.94
2023-03-05T13:19:50.738Z,97668.56
2023-03-05T13:22:17.665Z,97665.59
2023-03-05T13:24:44.696Z,97662.63
2023-03-05T13:27:33.744Z,97641.47
2023-03-05T13:30:00.670Z,97672.94
2023-03-05T13:32:30.794Z,97666.63
2023-03-05T13:34:59.931Z,97677.09
2023-03-05T13:37:37.217Z,97669.13
2023-03-05T13:40:19.237Z,97680.09
2023-03-05T13:42:46.412Z,97684.44
2023-03-05T13:45:30.012Z,97682.75
2023-03-05T13:48:03.257Z,97683.41
2023-03-05T13:50:33.109Z,97682.28
2023-03-05T13:53:23.068Z,97674.94
2023-03-05T13:55:52.391Z,97686.59
2023-03-05T13:58:44.551Z,97675.78
2023-03-05T14:01:30.925Z,97676.25
2023-03-05T14:04:03.560Z,97661.97
2023-03-05T14:06:31.185Z,97636.63
2023-03-05T14:09:18.827Z,97660.78
2023-03-05T14:11:59.827Z,97656.31
2023-03-05T14:14:29.010Z,97643.78
2023-03-05T14:16:56.306Z,97640.00
2023-03-05T14:19:38.734Z,97640.81
2023-03-05T14:22:06.835Z,97634.81
2023-03-05T14:24:34.252Z,97632.50
2023-03-05T14:27:13.465Z,97637.69
2023-03-05T14:29:46.761Z,97628.50
2023-03-05T14:32:42.070Z,97627.50
2023-03-05T14:35:19.679Z,97609.88
2023-03-05T14:37:49.583Z,97630.34
2023-03-05T14:40:16.830Z,97629.00
2023-03-05T14:42:43.651Z,97632.34
2023-03-05T14:45:23.492Z,97621.69
2023-03-05T14:47:52.317Z,97610.19
2023-03-05T14:50:22.513Z,97608.38
2023-03-05T14:52:53.801Z,97618.53
2023-03-05T14:55:24.324Z,97616.88
2023-03-05T14:57:55.150Z,97625.84
2023-03-05T15:00:25.498Z,97620.19
2023-03-05T15:02:52.812Z,97616.22
2023-03-05T15:05:20.051Z,97596.72
2023-03-05T15:07:47.926Z,97605.22
2023-03-05T15:10:20.381Z,97602.72
2023-03-05T15:12:47.479Z,97600.22
2023-03-05T15:15:15.457Z,97603.22
2023-03-05T15:17:47.600Z,97601.53
2023-03-05T15:20:21.314Z,97598.72
2023-03-05T15:22:48.429Z,97602.91
2023-03-05T15:25:16.157Z,97594.22
2023-03-05T15:27:43.427Z,97587.56
2023-03-05T15:30:21.224Z,97598.22
2023-03-05T15:32:48.221Z,97591.41
2023-03-05T15:35:15.131Z,97601.38
2023-03-05T15:37:42.062Z,97594.88
2023-03-05T15:40:09.892Z,97586.59
2023-03-05T15:42:36.829Z,97601.25
2023-03-05T15:45:04.370Z,97561.28
2023-03-05T15:47:33.384Z,97614.16
2023-03-05T15:50:00.479Z,97610.31
2023-03-05T15:52:27.457Z,97612.81
2023-03-05T15:54:54.413Z,97614.16
2023-03-05T15:57:24.899Z,97609.69
2023-03-05T15:59:51.892Z,97607.84
2023-03-05T16:02:19.151Z,97616.47
2023-03-05T16:04:46.120Z,97620.44
2023-03-05T16:07:15.761Z,97618.19
2023-03-05T16:09:48.921Z,97624.97
2023-03-05T16:12:22.724Z,97588.88
2023-03-05T16:14:52.025Z,97600.97
2023-03-05T16:17:21.089Z,97609.31
2023-03-05T16:19:51.389Z,97607.66
2023-03-05T16:22:18.668Z,97606.94
2023-03-05T16:24:45.602Z,97610.31
2023-03-05T16:27:12.774Z,97593.00
2023-03-05T16:29:39.778Z,97609.63
2023-03-05T16:32:07.060Z,97612.81
2023-03-05T16:34:34.714Z,97617.66
2023-03-05T16:37:04.663Z,97618.50
2023-03-05T16:39:31.677Z,97607.38
2023-03-05T16:41:58.841Z,97615.66
2023-03-05T16:44:25.740Z,97621.53
2023-03-05T16:46:54.211Z,97624.19
2023-03-05T16:49:21.978Z,97636.50
2023-03-05T16:51:49.275Z,97636.44
2023-03-05T16:54:16.176Z,97639.94
2023-03-05T16:56:43.134Z,97642.91
2023-03-05T16:59:10.302Z,97644.41
2023-03-05T17:01:37.379Z,97635.63
2023-03-05T17:04:04.461Z,97636.34
2023-03-05T17:06:32.980Z,97642.00
2023-03-05T17:09:00.369Z,97645.84
2023-03-05T17:11:27.633Z,97638.88
2023-03-05T17:13:54.972Z,97647.03
2023-03-05T17:16:22.912Z,97642.75
2023-03-05T17:18:49.988Z,97646.13
2023-03-05T17:21:17.501Z,97646.44
2023-03-05T17:23:44.585Z,97661.50
2023-03-05T17:26:14.765Z,97665.03
2023-03-05T17:28:42.141Z,97668.91
2023-03-05T17:31:10.082Z,97664.34
2023-03-05T17:33:39.606Z,97662.78
2023-03-05T17:36:06.801Z,97655.06
2023-03-05T17:38:33.713Z,97661.44
2023-03-05T17:41:00.678Z,97659.38
2023-03-05T17:43:28.152Z,97663.00
2023-03-05T17:45:59.880Z,97660.03
2023-03-05T17:48:27.916Z,97661.06
2023-03-05T17:50:55.479Z,97651.94
2023-03-05T17:53:23.302Z,97641.56
2023-03-05T17:55:50.183Z,97640.66
2023-03-05T17:58:17.144Z,97648.44
2023-03-05T18:00:44.713Z,97638.19
2023-03-05T18:03:11.600Z,97642.06
2023-03-05T18:05:38.611Z,97638.34
2023-03-05T18:08:05.585Z,97627.38
2023-03-05T18:10:32.721Z,97633.50
2023-03-05T18:13:00.012Z,97638.06
2023-03-05T18:15:28.390Z,97632.09
2023-03-05T18:17:55.797Z,97632.78
2023-03-05T18:20:25.697Z,97629.16
2023-03-05T18:22:53.148Z,97625.41
2023-03-05T18:25:20.260Z,97631.41
2023-03-05T18:27:47.206Z,97631.78
2023-03-05T18:30:14.206Z,97623.47
2023-03-05T18:32:41.342Z,97623.34
2023-03-05T18:35:08.824Z,97621.88
2023-03-05T18:37:38.274Z,97626.19
2023-03-05T18:40:09.792Z,97634.69
2023-03-05T18:42:37.376Z,97632.69
2023-03-05T18:45:10.525Z,97624.41
2023-03-05T18:47:39.293Z,97627.75
2023-03-05T18:50:07.514Z,97620.41
2023-03-05T18:52:34.431Z,97630.41
2023-03-05T18:55:01.580Z,97626.00
2023-03-05T18:57:28.548Z,97627.25
2023-03-05T18:59:55.437Z,97626.19
2023-03-05T19:02:22.365Z,97626.19
2023-03-05T19:04:49.318Z,97620.41
2023-03-05T19:07:16.312Z,97626.13
2023-03-05T19:09:59.506Z,97631.06
2023-03-05T19:12:31.253Z,97627.94
2023-03-05T19:14:59.782Z,97618.91
2023-03-05T19:17:27.115Z,97629.44
2023-03-05T19:19:56.422Z,97642.56
2023-03-05T19:22:23.449Z,97628.72
2023-03-05T19:24:50.358Z,97628.09
2023-03-05T19:27:18.975Z,97634.03
2023-03-05T19:29:45.950Z,97632.38
2023-03-05T19:32:15.961Z,97626.38
2023-03-05T19:34:43.149Z,97603.78
2023-03-05T19:37:10.031Z,97622.50
2023-03-05T19:39:37.418Z,97626.59
2023-03-05T19:42:04.478Z,97627.72
2023-03-05T19:44:31.931Z,97615.59
2023-03-05T19:46:58.959Z,97622.41
2023-03-05T19:49:25.976Z,97626.00
2023-03-05T19:51:52.933Z,97626.25
2023-03-05T19:54:21.589Z,97629.28
2023-03-05T19:56:51.149Z,97628.44
2023-03-05T19:59:21.330Z,97624.28
2023-03-05T20:01:49.403Z,97621.63
2023-03-05T20:04:19.739Z,97615.50
2023-03-05T20:06:47.124Z,97620.13
2023-03-05T20:09:15.202Z,97616.31
2023-03-05T20:11:42.559Z,97627.69
2023-03-05T20:14:09.746Z,97619.22
2023-03-05T20:16:38.032Z,97616.41
2023-03-05T20:19:08.001Z,97617.31
2023-03-05T20:21:45.133Z,97609.72
2023-03-05T20:24:18.824Z,97610.72
2023-03-05T20:26:47.155Z,97613.00
2023-03-05T20:29:17.865Z,97605.34
2023-03-05T20:31:46.028Z,97601.41
2023-03-05T20:34:16.252Z,97599.06
2023-03-05T20:36:43.416Z,97600.88
2023-03-05T20:39:10.767Z,97602.00
2023-03-05T20:41:39.865Z,97592.47
2023-03-05T20:44:08.147Z,97586.78
2023-03-05T20:46:39.652Z,97576.47
2023-03-05T20:49:06.632Z,97587.59
2023-03-05T20:51:36.729Z,97594.13
2023-03-05T20:54:13.289Z,97596.31
2023-03-05T20:56:40.341Z,97586.03
2023-03-05T20:59:09.037Z,97586.63
2023-03-05T21:01:38.973Z,97585.72
2023-03-05T21:04:06.882Z,97580.94
2023-03-05T21:06:34.305Z,97583.31
2023-03-05T21:09:02.634Z,97578.00
2023-03-05T21:11:29.745Z,97575.19
2023-03-05T21:13:56.747Z,97578.66
2023-03-05T21:16:26.261Z,97567.44
2023-03-05T21:18:53.623Z,97573.28
2023-03-05T21:21:20.590Z,97569.84
2023-03-05T21:23:47.795Z,97548.63
2023-03-05T21:26:15.476Z,97547.50
2023-03-05T21:28:42.579Z,97555.22
2023-03-05T21:31:14.574Z,97549.91
2023-03-05T21:33:42.473Z,97550.28
2023-03-05T21:36:11.774Z,97550.66
2023-03-05T21:38:39.197Z,97559.97
2023-03-05T21:41:06.858Z,97562.31
2023-03-05T21:43:35.546Z,97550.72
2023-03-05T21:46:06.015Z,97552.38
2023-03-05T21:48:33.521Z,97552.38
2023-03-05T21:51:02.962Z,97542.59
2023-03-05T21:53:30.269Z,97548.56
2023-03-05T21:56:03.292Z,97537.63
2023-03-05T21:58:32.198Z,97550.09
2023-03-05T22:00:59.552Z,97545.44
2023-03-05T22:03:27.680Z,97548.81
2023-03-05T22:05:55.528Z,97548.66
2023-03-05T22:08:23.286Z,97544.97
2023-03-05T22:10:50.418Z,97541.88
2023-03-05T22:13:20.217Z,97539.91
2023-03-05T22:15:47.145Z,97535.44
2023-03-05T22:18:16.133Z,97543.38
2023-03-05T22:20:43.496Z,97540.72
2023-03-05T22:23:12.015Z,97533.91
2023-03-05T22:25:39.858Z,97541.56
2023-03-05T22:28:06.976Z,97537.94
2023-03-05T22:30:33.981Z,97536.25
2023-03-05T22:33:02.093Z,97534.25
2023-03-05T22:35:29.568Z,97537.09
2023-03-05T22:37:58.416Z,97525.66
2023-03-05T22:40:25.616Z,97518.66
2023-03-05T22:42:52.539Z,97517.81
2023-03-05T22:45:20.685Z,97518.31
2023-03-05T22:47:52.142Z,97521.78
2023-03-05T22:50:19.528Z,97521.66
2023-03-05T22:52:46.972Z,97524.31
2023-03-05T22:55:15.595Z,97524.13
2023-03-05T22:57:43.768Z,97532.09
2023-03-05T23:00:16.615Z,97528.09
2023-03-05T23:02:44.700Z,97527.94
2023-03-05T23:05:12.870Z,97533.25
2023-03-05T23:07:42.454Z,97539.22
2023-03-05T23:10:16.774Z,97531.56
2023-03-05T23:12:49.550Z,97526.88
2023-03-05T23:15:25.801Z,97522.63
2023-03-05T23:17:53.619Z,97520.75
2023-03-05T23:20:23.526Z,97517.06
2023-03-05T23:22:53.077Z,97523.56
2023-03-05T23:25:20.874Z,97519.38
2023-03-05T23:27:48.421Z,97522.38
2023-03-05T23:30:20.671Z,97507.09
2023-03-05T23:32:55.201Z,97510.13
2023-03-05T23:35:28.597Z,97514.91
2023-03-05T23:37:57.423Z,97513.53
2023-03-05T23:40:27.689Z,97514.47
2023-03-05T23:42:54.907Z,97514.22
2023-03-05T23:45:23.301Z,97519.50
2023-03-05T23:47:51.859Z,97519.91
2023-03-05T23:50:27.949Z,97514.16
2023-03-05T23:52:55.031Z,97513.16
2023-03-05T23:55:25.163Z,97517.56
2023-03-05T23:57:52.911Z,97513.53
